createdAt,value
2022-07-29T00:07:30.105Z,57
2022-07-29T00:36:53.486Z,57
2022-07-29T01:06:20.620Z,60
2022-07-29T01:35:32.709Z,62
2022-07-29T02:04:55.656Z,64
2022-07-29T02:34:20.430Z,64
2022-07-29T03:03:13.965Z,64
2022-07-29T03:32:35.881Z,66
2022-07-29T04:01:57.164Z,66
2022-07-29T04:31:26.521Z,68
2022-07-29T05:00:11.162Z,68
2022-07-29T05:29:46.085Z,68
2022-07-29T05:58:23.811Z,65
2022-07-29T06:27:53.949Z,64
2022-07-29T06:57:25.631Z,64
2022-07-29T07:27:00.279Z,62
2022-07-29T07:56:23.124Z,60
2022-07-29T08:25:40.676Z,57
2022-07-29T08:54:30.523Z,54
2022-07-29T09:23:56.993Z,52
2022-07-29T09:53:19.233Z,50
2022-07-29T10:22:54.760Z,48
2022-07-29T10:51:48.055Z,42
2022-07-29T11:21:11.289Z,43
2022-07-29T11:50:45.515Z,43
2022-07-29T12:19:35.874Z,42
2022-07-29T12:48:56.584Z,43
2022-07-29T13:18:19.732Z,42
2022-07-29T13:47:04.034Z,41
2022-07-29T14:16:27.778Z,41
2022-07-29T14:45:45.650Z,40
2022-07-29T15:14:51.913Z,38
2022-07-29T15:44:21.396Z,38
2022-07-29T16:13:21.817Z,40
2022-07-29T16:42:46.814Z,38
2022-07-29T17:11:52.122Z,33
2022-07-29T17:40:16.730Z,38
2022-07-29T18:09:34.134Z,40
2022-07-29T18:38:46.363Z,41
2022-07-29T19:08:07.066Z,41
2022-07-29T19:37:28.078Z,41
2022-07-29T20:06:48.561Z,43
2022-07-29T20:36:12.930Z,44
2022-07-29T21:05:32.383Z,45
2022-07-29T21:34:59.929Z,44
2022-07-29T22:04:30.436Z,44
2022-07-29T22:33:49.742Z,44
2022-07-29T23:03:16.856Z,45
2022-07-29T23:32:37.933Z,45
